Time;durP1;ratioP1;P1;durP2;ratioP2;P2;SDS_P1;SDS_P2;PMS_P1;PMS_P2;Temp;Humidity;BMP_temperature;BMP_pressure;BME280_temperature;BME280_humidity;BME280_pressure;Samples;Min_cycle;Max_cycle;Signal;HPM_P1;HPM_P2
2022/03/07 00:01:06;;;;;;;11.27;10.17;;;;;;;2.02;68.00;100915.00;4999914;28;20260;-57
2022/03/07 00:03:31;;;;;;;10.63;9.53;;;;;;;2.00;67.97;100908.09;4996190;28;20283;-56
2022/03/07 00:05:56;;;;;;;10.77;9.67;;;;;;;1.97;68.13;100912.25;5000496;28;20204;-56
2022/03/07 00:08:22;;;;;;;11.10;10.10;;;;;;;1.99;67.46;100909.78;5006742;28;20240;-56
2022/03/07 00:10:47;;;;;;;10.43;9.43;;;;;;;1.95;67.94;100913.03;5003699;28;20201;-56
2022/03/07 00:13:13;;;;;;;10.20;9.23;;;;;;;1.93;67.26;100912.09;4997485;28;20183;-56
2022/03/07 00:15:38;;;;;;;11.43;10.37;;;;;;;1.92;67.38;100908.69;5004998;28;20630;-56
2022/03/07 00:18:04;;;;;;;11.83;10.57;;;;;;;1.94;67.50;100912.19;4995270;28;20224;-57
2022/03/07 00:20:30;;;;;;;11.00;9.87;;;;;;;1.91;67.58;100916.28;5007184;28;20193;-56
2022/03/07 00:22:55;;;;;;;10.23;9.30;;;;;;;1.89;67.24;100912.81;4998957;28;20652;-55
2022/03/07 00:25:21;;;;;;;10.97;9.97;;;;;;;1.88;67.40;100918.75;4996235;28;20222;-55
2022/03/07 00:27:46;;;;;;;10.20;9.20;;;;;;;1.85;67.58;100913.53;4999987;28;20197;-56
2022/03/07 00:30:12;;;;;;;10.43;9.43;;;;;;;1.80;67.69;100914.22;5021820;28;20596;-55
2022/03/07 00:32:37;;;;;;;10.53;9.57;;;;;;;1.80;67.63;100913.34;4996612;28;20566;-57
2022/03/07 00:35:03;;;;;;;10.60;9.67;;;;;;;1.81;68.01;100912.53;4999857;28;20316;-56
2022/03/07 00:37:28;;;;;;;11.13;9.80;;;;;;;1.81;67.80;100920.22;5001200;28;20185;-58
2022/03/07 00:39:54;;;;;;;10.37;9.37;;;;;;;1.81;67.63;100912.53;5001965;28;20188;-56
2022/03/07 00:42:19;;;;;;;11.07;9.97;;;;;;;1.81;67.75;100917.66;5001353;27;20683;-56
2022/03/07 00:44:45;;;;;;;10.30;9.30;;;;;;;1.78;68.06;100920.09;5001441;28;20208;-55
2022/03/07 00:47:10;;;;;;;10.57;9.57;;;;;;;1.76;68.14;100912.34;4998551;28;20772;-56
2022/03/07 00:49:35;;;;;;;9.60;8.60;;;;;;;1.76;68.18;100919.16;4999818;28;20264;-58
2022/03/07 00:52:01;;;;;;;10.37;9.27;;;;;;;1.73;68.55;100913.94;5003370;28;20235;-56
2022/03/07 00:54:26;;;;;;;10.83;9.80;;;;;;;1.70;68.70;100914.69;5000888;28;20252;-56
2022/03/07 00:56:51;;;;;;;9.17;8.33;;;;;;;1.68;68.96;100929.94;5000424;28;20685;-56
2022/03/07 00:59:17;;;;;;;10.27;9.27;;;;;;;1.66;69.24;100918.78;4999715;28;20219;-58
2022/03/07 01:01:42;;;;;;;10.67;9.57;;;;;;;1.63;69.55;100920.38;4998891;28;20185;-56
2022/03/07 01:04:08;;;;;;;10.40;9.40;;;;;;;1.64;69.99;100920.44;5002857;28;20207;-55
2022/03/07 01:06:33;;;;;;;10.47;9.47;;;;;;;1.64;69.81;100924.66;5001260;28;20241;-56
2022/03/07 01:08:58;;;;;;;10.17;9.30;;;;;;;1.62;70.21;100927.16;5002578;28;20181;-55
2022/03/07 01:11:24;;;;;;;10.03;9.13;;;;;;;1.59;70.40;100931.28;5005198;28;20672;-56
2022/03/07 01:13:49;;;;;;;10.00;9.10;;;;;;;1.55;70.33;100926.88;5003943;28;20269;-56
2022/03/07 01:16:14;;;;;;;10.10;9.10;;;;;;;1.55;70.61;100924.31;4999645;28;20208;-55
2022/03/07 01:18:40;;;;;;;11.23;10.23;;;;;;;1.51;70.57;100916.53;4997498;28;20281;-56
2022/03/07 01:21:05;;;;;;;10.70;9.70;;;;;;;1.49;70.88;100917.31;4998173;28;20628;-55
2022/03/07 01:23:31;;;;;;;10.53;9.57;;;;;;;1.47;71.05;100927.44;5000866;28;20263;-56
2022/03/07 01:25:56;;;;;;;10.77;9.63;;;;;;;1.42;71.15;100912.78;5013302;28;20598;-57
2022/03/07 01:28:21;;;;;;;10.07;9.07;;;;;;;1.39;71.46;100912.66;4999309;28;20823;-56
2022/03/07 01:30:48;;;;;;;10.53;9.47;;;;;;;1.36;71.53;100921.91;4999783;28;20220;-56
2022/03/07 01:33:13;;;;;;;10.13;9.13;;;;;;;1.37;71.40;100917.69;5002362;28;20188;-55
2022/03/07 01:35:39;;;;;;;10.20;9.20;;;;;;;1.34;71.54;100915.91;5001088;28;20202;-56
2022/03/07 01:38:04;;;;;;;10.70;9.70;;;;;;;1.30;71.68;100915.69;5000345;28;20482;-55
2022/03/07 01:40:30;;;;;;;9.90;8.93;;;;;;;1.24;72.20;100916.34;4997702;28;20211;-56
2022/03/07 01:42:55;;;;;;;10.90;9.90;;;;;;;1.20;71.91;100912.81;4999867;28;20184;-56
2022/03/07 01:45:20;;;;;;;10.07;9.17;;;;;;;1.24;71.92;100910.38;4997964;28;20239;-56
2022/03/07 01:47:47;;;;;;;10.67;9.33;;;;;;;1.20;71.64;100914.50;4998916;28;20192;-56
2022/03/07 01:50:15;;;;;;;11.43;9.70;;;;;;;1.20;71.98;100911.94;5000890;28;20648;-56
2022/03/07 01:52:43;;;;;;;10.17;9.17;;;;;;;1.18;72.45;100905.91;4998061;28;20210;-56
2022/03/07 01:55:11;;;;;;;9.57;8.67;;;;;;;1.15;72.53;100899.00;5002650;28;20296;-56
2022/03/07 01:57:37;;;;;;;9.90;9.00;;;;;;;1.12;72.66;100898.00;4996296;28;20245;-55
2022/03/07 02:00:07;;;;;;;10.37;9.20;;;;;;;1.10;72.74;100903.06;4998732;28;20185;-58
2022/03/07 02:02:32;;;;;;;9.70;8.70;;;;;;;1.02;72.94;100895.13;4999299;28;20675;-56
2022/03/07 02:04:58;;;;;;;10.13;9.13;;;;;;;0.95;73.16;100898.22;5006254;28;20205;-56
2022/03/07 02:07:23;;;;;;;9.93;9.03;;;;;;;0.95;73.51;100895.66;4999063;28;20644;-56
2022/03/07 02:09:50;;;;;;;10.50;9.60;;;;;;;0.89;73.32;100890.34;5000130;28;20337;-55
2022/03/07 02:12:15;;;;;;;9.07;8.27;;;;;;;0.85;73.24;100894.41;5003328;28;20235;-56
2022/03/07 02:14:41;;;;;;;10.20;9.13;;;;;;;0.78;73.69;100896.66;4997748;28;20211;-56
2022/03/07 02:17:06;;;;;;;10.37;9.37;;;;;;;0.75;73.49;100887.22;5000392;28;20760;-55
2022/03/07 02:19:31;;;;;;;10.40;9.43;;;;;;;0.66;73.69;100887.72;4995972;28;20189;-56
2022/03/07 02:22:01;;;;;;;10.13;9.13;;;;;;;0.59;73.76;100883.19;4998198;28;20274;-55
2022/03/07 02:24:28;;;;;;;9.63;8.73;;;;;;;0.52;73.96;100884.63;4994320;28;20241;-56
2022/03/07 02:27:00;;;;;;;10.67;9.57;;;;;;;0.45;73.89;100888.56;4997757;28;20187;-56
2022/03/07 02:29:25;;;;;;;10.10;9.10;;;;;;;0.40;74.03;100886.63;4994676;28;21972;-55
2022/03/07 02:31:51;;;;;;;10.33;8.63;;;;;;;0.36;74.00;100880.53;4999815;28;20223;-55
2022/03/07 02:34:16;;;;;;;10.87;9.77;;;;;;;0.32;74.43;100882.91;5004642;28;20209;-57
2022/03/07 02:36:42;;;;;;;9.93;8.90;;;;;;;0.26;74.07;100883.50;4999584;28;20244;-57
2022/03/07 02:39:07;;;;;;;9.90;8.90;;;;;;;0.21;74.12;100882.44;5001224;28;20702;-57
2022/03/07 02:41:33;;;;;;;9.77;8.87;;;;;;;0.11;74.44;100882.03;4996097;28;20190;-57
2022/03/07 02:43:58;;;;;;;9.93;9.03;;;;;;;0.08;74.33;100879.38;5000249;28;20668;-58
2022/03/07 02:46:24;;;;;;;9.87;8.87;;;;;;;0.01;74.08;100884.97;4998373;28;20668;-57
2022/03/07 02:48:49;;;;;;;9.53;8.63;;;;;;;0.01;73.64;100879.88;5001496;28;20675;-62
2022/03/07 02:51:15;;;;;;;9.17;8.30;;;;;;;-0.04;73.69;100872.06;5005383;28;20211;-56
2022/03/07 02:53:40;;;;;;;9.10;8.20;;;;;;;-0.12;73.72;100868.31;4999563;28;20199;-55
2022/03/07 02:56:05;;;;;;;9.67;8.47;;;;;;;-0.17;73.64;100869.78;4998877;28;20206;-56
2022/03/07 02:58:31;;;;;;;9.37;8.53;;;;;;;-0.23;73.88;100885.66;4993567;28;20770;-55
2022/03/07 03:00:56;;;;;;;9.40;8.50;;;;;;;-0.27;73.73;100881.22;4998293;28;20189;-55
2022/03/07 03:03:22;;;;;;;9.47;8.57;;;;;;;-0.33;73.85;100878.41;5000202;28;20670;-57
2022/03/07 03:05:47;;;;;;;9.93;9.03;;;;;;;-0.39;74.27;100880.66;5001954;28;20208;-55
2022/03/07 03:08:13;;;;;;;9.10;8.20;;;;;;;-0.45;74.22;100883.81;5017104;28;20541;-57
2022/03/07 03:10:38;;;;;;;9.00;8.20;;;;;;;-0.54;74.61;100884.25;4999448;28;20203;-55
2022/03/07 03:13:03;;;;;;;9.67;8.67;;;;;;;-0.61;74.75;100884.78;4999875;28;20554;-56
2022/03/07 03:15:29;;;;;;;9.53;8.53;;;;;;;-0.65;74.93;100878.69;5006788;28;20744;-57
2022/03/07 03:17:54;;;;;;;10.13;9.13;;;;;;;-0.69;75.02;100881.91;4999109;28;20197;-56
2022/03/07 03:20:20;;;;;;;9.17;8.37;;;;;;;-0.74;74.83;100888.44;5006895;28;20187;-56
2022/03/07 03:22:46;;;;;;;9.43;8.53;;;;;;;-0.71;75.25;100887.69;4996484;28;20183;-56
2022/03/07 03:25:15;;;;;;;9.57;8.67;;;;;;;-0.76;75.61;100895.09;5004042;28;20205;-56
2022/03/07 03:27:41;;;;;;;9.30;8.50;;;;;;;-0.74;75.09;100896.06;5001414;28;20463;-56
2022/03/07 03:30:09;;;;;;;9.40;8.50;;;;;;;-0.74;74.97;100898.59;5001164;28;20245;-57
2022/03/07 03:32:34;;;;;;;9.67;8.77;;;;;;;-0.72;75.01;100903.75;5006409;28;20197;-57
2022/03/07 03:35:00;;;;;;;10.20;9.20;;;;;;;-0.80;75.37;100896.63;4997366;28;20213;-56
2022/03/07 03:37:25;;;;;;;10.23;9.27;;;;;;;-0.84;75.71;100902.38;4998585;28;20809;-56
2022/03/07 03:39:51;;;;;;;10.07;9.10;;;;;;;-0.87;76.05;100907.31;4998174;28;20184;-56
2022/03/07 03:42:17;;;;;;;10.47;9.37;;;;;;;-0.95;76.92;100901.00;5003051;28;20546;-56
2022/03/07 03:44:43;;;;;;;9.80;8.90;;;;;;;-1.00;77.78;100910.94;5000618;28;20220;-56
2022/03/07 03:47:08;;;;;;;10.60;9.13;;;;;;;-0.98;78.23;100911.00;5001208;28;20227;-57
2022/03/07 03:49:34;;;;;;;10.30;9.37;;;;;;;-1.06;78.68;100914.88;5001831;28;20248;-56
2022/03/07 03:51:59;;;;;;;10.57;9.50;;;;;;;-1.13;79.43;100906.94;5004745;28;20206;-56
2022/03/07 03:54:24;;;;;;;10.87;9.80;;;;;;;-1.17;79.87;100917.72;5000801;28;20840;-55
2022/03/07 03:56:50;;;;;;;9.97;8.97;;;;;;;-1.19;79.47;100915.94;4997074;28;20377;-56
2022/03/07 03:59:16;;;;;;;10.03;9.13;;;;;;;-1.20;80.19;100912.50;5000354;28;20195;-56
2022/03/07 04:01:44;;;;;;;10.13;9.23;;;;;;;-1.30;80.53;100917.94;4998303;28;20543;-55
2022/03/07 04:04:13;;;;;;;10.80;9.70;;;;;;;-1.36;80.99;100917.63;5002061;28;20285;-56
2022/03/07 04:06:40;;;;;;;10.77;9.77;;;;;;;-1.42;81.12;100919.06;4998819;28;20194;-55
2022/03/07 04:09:25;;;;;;;11.10;10.00;;;;;;;-1.44;81.64;100915.56;5004585;28;20186;-56
2022/03/07 04:11:54;;;;;;;11.20;10.20;;;;;;;-1.46;81.58;100911.22;5008821;28;20218;-56
2022/03/07 04:14:20;;;;;;;10.83;9.73;;;;;;;-1.46;81.26;100917.16;5019131;28;20223;-57
2022/03/07 04:16:45;;;;;;;12.13;10.93;;;;;;;-1.47;81.31;100917.09;4998062;28;20260;-57
2022/03/07 04:19:11;;;;;;;12.47;11.17;;;;;;;-1.47;81.30;100917.09;5009168;28;20211;-57
2022/03/07 04:21:39;;;;;;;11.23;10.13;;;;;;;-1.44;81.02;100922.34;5002889;28;20187;-57
2022/03/07 04:24:05;;;;;;;11.47;10.37;;;;;;;-1.46;81.04;100927.31;4998502;28;20657;-56
2022/03/07 04:26:31;;;;;;;10.70;9.80;;;;;;;-1.45;80.66;100925.66;5000659;28;20207;-57
2022/03/07 04:28:56;;;;;;;10.73;9.73;;;;;;;-1.47;80.83;100932.34;5003923;28;20203;-56
2022/03/07 04:31:23;;;;;;;12.37;10.20;;;;;;;-1.52;81.56;100927.03;5003162;28;20205;-56
2022/03/07 04:33:49;;;;;;;11.27;10.17;;;;;;;-1.49;81.72;100928.84;5000080;28;20277;-56
2022/03/07 04:36:15;;;;;;;11.17;9.83;;;;;;;-1.50;81.76;100935.56;4998739;28;20189;-55
2022/03/07 04:38:43;;;;;;;14.20;10.53;;;;;;;-1.52;82.33;100939.72;5014351;28;20181;-55
2022/03/07 04:41:08;;;;;;;11.73;10.53;;;;;;;-1.60;83.00;100934.25;4996199;28;20181;-57
2022/03/07 04:43:34;;;;;;;11.67;10.57;;;;;;;-1.58;83.10;100949.56;4999883;28;20184;-56
2022/03/07 04:45:59;;;;;;;11.27;9.83;;;;;;;-1.61;83.47;100946.84;5004413;28;20758;-57
2022/03/07 04:48:25;;;;;;;11.10;9.93;;;;;;;-1.63;83.69;100938.28;5000345;28;20208;-56
2022/03/07 04:50:51;;;;;;;12.03;10.43;;;;;;;-1.68;83.68;100948.22;4996087;28;20562;-56
2022/03/07 04:53:16;;;;;;;12.70;10.27;;;;;;;-1.65;84.12;100947.47;5001728;28;20192;-56
2022/03/07 04:55:42;;;;;;;11.33;10.13;;;;;;;-1.68;84.06;100955.81;5000139;28;20640;-57
2022/03/07 04:58:07;;;;;;;12.80;10.03;;;;;;;-1.73;84.04;100953.06;4997423;28;20201;-57
2022/03/07 05:00:32;;;;;;;12.13;9.53;;;;;;;-1.74;84.05;100955.53;5002171;28;20204;-56
2022/03/07 05:02:58;;;;;;;11.43;9.93;;;;;;;-1.76;84.57;100957.97;5002051;28;20189;-56
2022/03/07 05:05:23;;;;;;;9.90;8.90;;;;;;;-1.78;84.81;100958.69;4998461;28;20204;-56
2022/03/07 05:07:49;;;;;;;10.27;9.13;;;;;;;-1.76;84.73;100955.41;4998339;28;20586;-56
2022/03/07 05:10:18;;;;;;;10.27;9.17;;;;;;;-1.77;84.76;100963.81;5001646;28;20190;-55
2022/03/07 05:12:44;;;;;;;9.97;8.97;;;;;;;-1.77;84.99;100968.91;5004284;28;20188;-56
2022/03/07 05:15:10;;;;;;;10.30;9.30;;;;;;;-1.80;85.00;100962.81;5002021;28;20251;-56
2022/03/07 05:17:48;;;;;;;9.67;8.63;;;;;;;-1.80;85.17;100962.81;5001079;28;20188;-56
2022/03/07 05:20:15;;;;;;;10.53;8.90;;;;;;;-1.86;85.69;100961.69;5006394;28;20184;-56
2022/03/07 05:22:41;;;;;;;9.43;8.53;;;;;;;-1.92;86.60;100966.44;4999934;28;20191;-55
2022/03/07 05:25:07;;;;;;;11.97;9.37;;;;;;;-1.98;87.33;100973.72;5006065;28;20230;-56
2022/03/07 05:27:33;;;;;;;10.20;8.53;;;;;;;-1.99;87.57;100966.91;5002176;28;20184;-55
2022/03/07 05:29:58;;;;;;;10.60;9.47;;;;;;;-2.00;87.88;100973.66;4999283;28;20245;-55
2022/03/07 05:32:23;;;;;;;9.80;8.70;;;;;;;-2.02;88.04;100970.16;5003375;28;20291;-56
2022/03/07 05:34:49;;;;;;;10.60;9.50;;;;;;;-2.00;88.46;100982.91;5019092;28;20693;-57
2022/03/07 05:37:14;;;;;;;10.87;8.90;;;;;;;-1.99;88.40;100979.59;4999891;28;20596;-56
2022/03/07 05:39:39;;;;;;;11.37;9.83;;;;;;;-2.01;88.62;100992.19;5002287;28;20580;-56
2022/03/07 05:42:05;;;;;;;11.00;8.57;;;;;;;-2.03;88.65;100983.63;5000751;28;20202;-56
2022/03/07 05:44:31;;;;;;;11.53;9.50;;;;;;;-2.09;88.98;100988.38;4997112;28;20294;-56
2022/03/07 05:46:56;;;;;;;9.63;8.57;;;;;;;-2.05;88.95;100984.34;4996878;28;20223;-56
2022/03/07 05:49:22;;;;;;;10.20;9.20;;;;;;;-2.07;89.06;100986.78;5002408;28;20185;-56
2022/03/07 05:51:47;;;;;;;12.23;8.80;;;;;;;-2.06;89.10;100975.00;5002629;28;20315;-55
2022/03/07 05:54:13;;;;;;;11.23;8.20;;;;;;;-2.06;88.69;100975.84;4992005;28;20206;-55
2022/03/07 05:56:38;;;;;;;9.53;8.47;;;;;;;-2.06;88.33;100986.00;5000134;28;20188;-55
2022/03/07 05:59:04;;;;;;;9.50;8.50;;;;;;;-2.11;88.29;100976.41;5001480;28;20196;-55
2022/03/07 06:01:29;;;;;;;11.17;8.23;;;;;;;-2.18;88.43;100976.06;4997946;28;20528;-58
2022/03/07 06:03:54;;;;;;;9.73;8.20;;;;;;;-2.21;88.11;100988.59;4996086;28;20216;-57
2022/03/07 06:06:20;;;;;;;8.90;7.90;;;;;;;-2.21;87.92;100990.25;4997792;28;20189;-57
2022/03/07 06:08:45;;;;;;;9.07;8.17;;;;;;;-2.23;87.94;100990.16;5004660;28;20185;-56
2022/03/07 06:11:11;;;;;;;8.53;7.73;;;;;;;-2.23;88.03;100994.34;5008427;28;20676;-56
2022/03/07 06:13:36;;;;;;;9.80;8.10;;;;;;;-2.24;87.97;100996.03;5005766;28;20188;-56
2022/03/07 06:16:01;;;;;;;9.23;8.20;;;;;;;-2.24;87.77;100992.59;5012312;28;20284;-55
2022/03/07 06:18:27;;;;;;;10.53;7.80;;;;;;;-2.26;87.94;100997.59;5009050;28;20192;-57
2022/03/07 06:20:53;;;;;;;9.83;8.40;;;;;;;-2.21;87.79;101002.91;5008183;28;20183;-56
2022/03/07 06:23:19;;;;;;;9.10;7.87;;;;;;;-2.17;87.55;101004.84;5003546;28;20180;-56
2022/03/07 06:25:45;;;;;;;16.13;8.17;;;;;;;-2.07;87.00;101004.53;5014853;28;20573;-56
2022/03/07 06:28:11;;;;;;;12.13;7.70;;;;;;;-2.01;86.65;101006.53;4997023;28;20235;-56
2022/03/07 06:30:36;;;;;;;10.03;6.97;;;;;;;-1.95;86.85;101005.97;5003880;28;20215;-57
2022/03/07 06:33:03;;;;;;;9.03;8.13;;;;;;;-1.90;87.32;101002.03;5008322;28;20274;-56
2022/03/07 06:35:28;;;;;;;10.37;7.77;;;;;;;-1.81;87.30;101002.50;5001290;28;20221;-56
2022/03/07 06:37:54;;;;;;;10.60;8.37;;;;;;;-1.69;86.83;100997.22;5014762;28;20193;-56
2022/03/07 06:40:21;;;;;;;14.63;8.13;;;;;;;-1.55;86.30;100995.41;5008795;28;20219;-56
2022/03/07 06:42:47;;;;;;;12.43;7.87;;;;;;;-1.39;85.54;100997.06;5019438;28;20190;-56
2022/03/07 06:45:14;;;;;;;10.53;8.07;;;;;;;-1.29;84.64;100998.41;5010380;28;20496;-56
2022/03/07 06:47:40;;;;;;;8.17;7.37;;;;;;;-1.20;84.97;100998.00;4999089;28;20569;-55
2022/03/07 06:50:06;;;;;;;9.87;7.93;;;;;;;-1.11;84.38;101006.94;5002247;28;20195;-57
2022/03/07 06:52:31;;;;;;;7.87;6.97;;;;;;;-1.07;83.85;101010.50;5003463;28;20227;-56
2022/03/07 06:54:57;;;;;;;6.83;6.13;;;;;;;-0.98;83.49;101005.88;5001804;28;20209;-56
2022/03/07 06:57:23;;;;;;;9.53;7.63;;;;;;;-0.92;83.41;101013.81;5002670;28;20204;-56
2022/03/07 06:59:49;;;;;;;8.10;7.17;;;;;;;-0.88;82.05;101001.25;5008117;28;20625;-55
2022/03/07 07:02:15;;;;;;;7.17;6.47;;;;;;;-0.90;81.91;101025.72;5001726;28;20242;-55
2022/03/07 07:04:40;;;;;;;7.07;6.40;;;;;;;-0.92;82.59;101011.28;4997648;28;20212;-56
2022/03/07 07:07:06;;;;;;;8.50;7.17;;;;;;;-0.84;82.46;101021.81;5001396;28;20194;-55
2022/03/07 07:09:31;;;;;;;7.77;6.97;;;;;;;-0.85;81.92;101020.06;5009534;28;20193;-56
2022/03/07 07:11:57;;;;;;;7.73;7.03;;;;;;;-0.81;81.76;101021.09;5009482;28;20213;-56
2022/03/07 07:14:22;;;;;;;8.33;7.37;;;;;;;-0.81;81.82;101014.34;5014288;28;20218;-56
2022/03/07 07:16:47;;;;;;;10.57;7.40;;;;;;;-0.78;81.23;101008.53;5005662;28;20560;-57
2022/03/07 07:19:16;;;;;;;7.60;6.83;;;;;;;-0.78;81.38;101011.97;5009662;28;20266;-55
2022/03/07 07:21:41;;;;;;;7.67;6.90;;;;;;;-0.69;81.65;101014.09;5012264;28;20198;-56
2022/03/07 07:24:07;;;;;;;8.07;7.27;;;;;;;-0.66;80.69;101029.47;5017800;28;20209;-56
2022/03/07 07:26:32;;;;;;;7.77;7.03;;;;;;;-0.70;80.44;101036.88;5014926;28;20615;-56
2022/03/07 07:28:58;;;;;;;7.33;6.63;;;;;;;-0.65;81.00;101027.81;5012520;28;20284;-56
2022/03/07 07:31:23;;;;;;;8.43;7.53;;;;;;;-0.61;81.17;101032.25;5014047;28;20266;-56
2022/03/07 07:33:49;;;;;;;7.53;6.60;;;;;;;-0.62;80.06;101044.06;5004585;28;20193;-55
2022/03/07 07:36:14;;;;;;;10.23;7.07;;;;;;;-0.58;80.57;101037.47;5019616;28;20203;-55
2022/03/07 07:38:39;;;;;;;25.07;9.60;;;;;;;-0.57;79.85;101034.13;5002489;28;20191;-55
2022/03/07 07:41:05;;;;;;;8.20;7.40;;;;;;;-0.52;79.75;101039.41;5005752;28;20268;-56
2022/03/07 07:43:30;;;;;;;7.80;6.77;;;;;;;-0.51;79.70;101042.06;4997940;28;20195;-57
2022/03/07 07:45:56;;;;;;;10.63;7.53;;;;;;;-0.41;79.74;101057.75;5008240;28;20210;-56
2022/03/07 07:48:21;;;;;;;8.93;7.63;;;;;;;-0.37;78.97;101046.94;4999088;28;20692;-56
2022/03/07 07:50:47;;;;;;;10.03;7.63;;;;;;;-0.43;78.47;101050.06;5007449;28;20211;-55
2022/03/07 07:53:12;;;;;;;8.43;7.20;;;;;;;-0.32;78.48;101061.59;5006319;28;20191;-55
2022/03/07 07:55:38;;;;;;;8.40;7.60;;;;;;;-0.23;78.12;101062.88;4999967;28;20224;-55
2022/03/07 07:58:03;;;;;;;8.63;7.20;;;;;;;-0.22;77.57;101052.75;5012095;28;20194;-56
2022/03/07 08:00:28;;;;;;;7.73;6.97;;;;;;;-0.12;78.14;101050.63;5010870;28;20257;-55
2022/03/07 08:02:54;;;;;;;8.00;7.20;;;;;;;-0.02;78.10;101047.72;5010235;28;20274;-57
2022/03/07 08:05:20;;;;;;;9.80;7.93;;;;;;;0.05;77.42;101056.50;5003201;28;20219;-57
2022/03/07 08:07:46;;;;;;;9.10;7.60;;;;;;;0.11;75.98;101064.41;5011816;28;20199;-56
2022/03/07 08:10:14;;;;;;;7.30;6.53;;;;;;;0.13;75.17;101078.09;5003093;28;20194;-57
2022/03/07 08:12:39;;;;;;;8.00;7.20;;;;;;;0.18;75.19;101057.94;5001148;28;20248;-56
2022/03/07 08:15:11;;;;;;;27.10;9.50;;;;;;;0.21;74.89;101058.09;5007348;28;20230;-56
2022/03/07 08:17:36;;;;;;;9.57;7.87;;;;;;;0.23;74.42;101066.66;5008731;28;20655;-57
2022/03/07 08:20:02;;;;;;;8.67;7.47;;;;;;;0.22;74.59;101054.72;5008585;28;20205;-56
2022/03/07 08:22:27;;;;;;;8.40;7.60;;;;;;;0.22;74.20;101065.81;5000954;28;20234;-55
2022/03/07 08:24:53;;;;;;;8.63;7.73;;;;;;;0.22;74.44;101053.06;5008089;28;20283;-56
2022/03/07 08:27:18;;;;;;;8.27;7.47;;;;;;;0.27;74.35;101056.69;5011351;28;20189;-55
2022/03/07 08:29:43;;;;;;;8.63;7.13;;;;;;;0.35;74.09;101056.16;5006795;28;20639;-56
2022/03/07 08:32:09;;;;;;;9.33;8.00;;;;;;;0.39;73.58;101052.94;5005929;28;20206;-56
2022/03/07 08:34:35;;;;;;;8.83;7.67;;;;;;;0.46;73.65;101060.06;5000416;28;20240;-56
2022/03/07 08:37:01;;;;;;;12.07;9.00;;;;;;;0.49;73.68;101060.22;5002621;28;20533;-56
2022/03/07 08:39:26;;;;;;;9.00;8.13;;;;;;;0.52;73.29;101073.09;5015918;28;20194;-56
2022/03/07 08:41:52;;;;;;;8.83;8.03;;;;;;;0.60;74.16;101050.50;5006016;28;20205;-55
2022/03/07 08:44:17;;;;;;;7.97;7.17;;;;;;;0.67;73.19;101057.59;4996815;28;20676;-56
2022/03/07 08:46:42;;;;;;;11.33;9.03;;;;;;;0.73;73.01;101080.81;5013060;28;20337;-56
2022/03/07 08:49:08;;;;;;;11.93;8.80;;;;;;;0.77;72.88;101053.78;5004483;28;20191;-56
2022/03/07 08:51:33;;;;;;;11.67;8.77;;;;;;;0.80;72.91;101060.66;5005470;28;20711;-56
2022/03/07 08:53:59;;;;;;;9.73;8.73;;;;;;;0.76;72.21;101057.97;5007893;28;20306;-55
2022/03/07 08:56:24;;;;;;;9.13;8.33;;;;;;;0.74;72.34;101061.28;4999281;28;20193;-57
2022/03/07 08:58:49;;;;;;;10.90;9.80;;;;;;;0.77;72.08;101063.97;5006078;28;20198;-57
2022/03/07 09:01:16;;;;;;;9.43;8.53;;;;;;;0.77;72.18;101053.78;5006604;28;20237;-56
2022/03/07 09:03:42;;;;;;;15.87;9.40;;;;;;;0.95;72.19;101063.03;5000430;28;20264;-56
2022/03/07 09:06:08;;;;;;;11.27;10.07;;;;;;;0.95;71.87;101056.22;5006394;28;20704;-56
2022/03/07 09:08:33;;;;;;;10.23;9.23;;;;;;;1.10;71.45;101057.69;5006236;28;20193;-56
2022/03/07 09:10:58;;;;;;;14.00;9.33;;;;;;;1.32;71.97;101062.88;5008194;28;20684;-56
2022/03/07 09:13:24;;;;;;;11.00;9.57;;;;;;;1.38;70.46;101069.91;5009096;28;20192;-57
2022/03/07 09:15:49;;;;;;;11.57;9.57;;;;;;;1.33;69.93;101066.28;5006653;28;20616;-56
2022/03/07 09:18:14;;;;;;;11.50;10.30;;;;;;;1.29;69.93;101060.19;5008530;28;20554;-56
2022/03/07 09:20:40;;;;;;;11.57;10.33;;;;;;;1.32;69.87;101064.56;5011937;28;20208;-56
2022/03/07 09:23:05;;;;;;;10.90;9.80;;;;;;;1.31;70.24;101073.91;5000751;28;20235;-57
2022/03/07 09:25:31;;;;;;;19.70;11.33;;;;;;;1.30;69.22;101061.94;5001698;28;20217;-56
2022/03/07 09:27:56;;;;;;;12.70;10.63;;;;;;;1.26;69.10;101075.38;5010222;28;20194;-56
2022/03/07 09:30:23;;;;;;;11.23;10.13;;;;;;;1.20;69.62;101078.53;5008905;28;20278;-56
2022/03/07 09:32:49;;;;;;;10.63;9.63;;;;;;;1.30;69.16;101069.59;5011284;28;20534;-55
2022/03/07 09:35:15;;;;;;;10.70;9.70;;;;;;;1.39;69.32;101068.22;5009245;28;20196;-56
2022/03/07 09:37:40;;;;;;;12.80;10.60;;;;;;;1.53;69.25;101072.22;4996870;28;20220;-56
2022/03/07 09:40:06;;;;;;;12.13;10.90;;;;;;;1.66;67.71;101068.47;5007659;28;20654;-56
2022/03/07 09:42:31;;;;;;;11.53;10.43;;;;;;;1.74;67.37;101063.69;5041604;28;20233;-56
2022/03/07 09:44:57;;;;;;;12.57;10.73;;;;;;;1.95;67.77;101066.19;5005867;28;20216;-55
2022/03/07 09:47:22;;;;;;;12.93;11.00;;;;;;;2.05;66.99;101069.97;5005255;28;20184;-56
2022/03/07 09:49:51;;;;;;;11.83;10.70;;;;;;;1.98;67.15;101082.50;5004703;28;20292;-56
2022/03/07 09:52:17;;;;;;;11.43;10.33;;;;;;;2.01;66.84;101069.00;5015386;28;20212;-56
2022/03/07 09:54:42;;;;;;;12.10;10.80;;;;;;;2.03;66.84;101066.50;5013040;28;20696;-56
2022/03/07 09:57:07;;;;;;;12.93;11.17;;;;;;;1.96;66.03;101067.94;5009775;28;20234;-56
2022/03/07 09:59:34;;;;;;;18.43;11.00;;;;;;;1.97;66.43;101073.09;5012319;28;20207;-56
2022/03/07 10:02:14;;;;;;;12.53;11.33;;;;;;;2.10;65.64;101066.78;5007949;28;20185;-56
2022/03/07 10:04:41;;;;;;;11.93;10.83;;;;;;;2.36;66.88;101060.94;5012591;28;20234;-55
2022/03/07 10:07:07;;;;;;;11.57;10.37;;;;;;;2.47;65.90;101066.44;4994501;28;20590;-56
2022/03/07 10:09:32;;;;;;;12.30;11.17;;;;;;;2.39;64.74;101061.91;4999480;28;20185;-56
2022/03/07 10:12:00;;;;;;;13.37;11.97;;;;;;;2.27;64.42;101069.97;5006477;28;20260;-58
2022/03/07 10:14:44;;;;;;;12.10;10.87;;;;;;;2.26;64.13;101075.03;5011071;28;20204;-57
2022/03/07 10:17:24;;;;;;;11.93;10.73;;;;;;;2.28;63.69;101081.06;5003904;28;20204;-57
2022/03/07 10:19:50;;;;;;;12.23;11.03;;;;;;;2.35;63.38;101070.25;5020339;28;20602;-56
2022/03/07 10:22:22;;;;;;;12.40;11.20;;;;;;;2.40;63.36;101076.41;5017273;28;20188;-56
2022/03/07 10:25:02;;;;;;;12.87;11.67;;;;;;;2.47;63.51;101084.31;5000875;28;20297;-55
2022/03/07 10:27:31;;;;;;;12.13;11.00;;;;;;;2.51;63.71;101081.94;5010121;28;20199;-55
2022/03/07 10:29:56;;;;;;;12.13;11.03;;;;;;;2.42;62.97;101072.25;5015096;28;20546;-55
2022/03/07 10:32:22;;;;;;;12.57;11.47;;;;;;;2.68;62.24;101064.66;5018550;28;20208;-55
2022/03/07 10:34:48;;;;;;;12.20;11.10;;;;;;;2.93;61.61;101085.09;5004537;28;20709;-55
2022/03/07 10:37:13;;;;;;;12.63;11.43;;;;;;;3.07;60.65;101060.88;4997364;28;20191;-57
2022/03/07 10:39:46;;;;;;;12.17;11.07;;;;;;;3.19;60.58;101078.34;5020360;28;20283;-56
2022/03/07 10:42:16;;;;;;;13.07;11.87;;;;;;;3.14;60.76;101065.41;5011206;28;20268;-56
2022/03/07 10:44:42;;;;;;;12.20;10.90;;;;;;;3.25;61.37;101064.88;5008328;28;20820;-56
2022/03/07 10:47:13;;;;;;;11.77;10.67;;;;;;;3.24;61.04;101064.03;5010125;28;20648;-54
2022/03/07 10:49:52;;;;;;;11.57;10.47;;;;;;;3.56;60.94;101069.31;5012937;28;20187;-57
2022/03/07 10:52:19;;;;;;;12.03;11.00;;;;;;;3.62;60.45;101063.53;5008268;28;20217;-55
2022/03/07 10:54:46;;;;;;;12.50;11.40;;;;;;;3.87;59.94;101048.94;5006318;28;20217;-57
2022/03/07 10:57:13;;;;;;;13.47;12.10;;;;;;;4.09;60.77;101055.59;5007618;28;20195;-57
2022/03/07 10:59:38;;;;;;;11.83;10.73;;;;;;;4.30;59.61;101052.78;5016894;28;20238;-57
2022/03/07 11:02:14;;;;;;;13.53;11.57;;;;;;;4.05;60.08;101064.88;5007860;28;20660;-57
2022/03/07 11:04:40;;;;;;;12.53;11.40;;;;;;;3.89;59.98;101063.50;5019283;28;20293;-57
2022/03/07 11:07:08;;;;;;;13.00;11.80;;;;;;;3.68;59.91;101065.41;5015773;28;20197;-57
2022/03/07 11:09:34;;;;;;;13.23;11.77;;;;;;;3.47;60.09;101058.78;5009758;28;20195;-57
2022/03/07 11:12:00;;;;;;;13.23;11.83;;;;;;;3.24;60.38;101053.78;5007197;28;20211;-58
2022/03/07 11:14:27;;;;;;;12.80;11.60;;;;;;;3.26;61.32;101058.94;5009580;28;20278;-57
2022/03/07 11:16:56;;;;;;;13.53;12.10;;;;;;;3.06;60.94;101064.25;5010599;28;20189;-55